createdAt,value
2017-08-12T00:00:03.326Z,1.77
2017-08-12T00:02:30.836Z,1.27
2017-08-12T00:04:58.342Z,3.57
2017-08-12T00:07:25.817Z,1.40
2017-08-12T00:09:54.057Z,2.70
2017-08-12T00:12:21.638Z,2.27
2017-08-12T00:14:49.912Z,1.87
2017-08-12T00:17:18.243Z,2.20
2017-08-12T00:19:45.754Z,1.87
2017-08-12T00:22:14.020Z,2.10
2017-08-12T00:24:41.586Z,1.30
2017-08-12T00:27:09.863Z,1.80
2017-08-12T00:29:38.146Z,2.57
2017-08-12T00:32:06.382Z,1.60
2017-08-12T00:34:33.870Z,1.67
2017-08-12T00:37:02.191Z,1.80
2017-08-12T00:39:30.620Z,1.70
2017-08-12T00:41:58.182Z,1.50
2017-08-12T00:44:26.464Z,1.37
2017-08-12T00:46:54.835Z,1.37
2017-08-12T00:49:23.084Z,1.07
2017-08-12T00:51:50.548Z,1.40
2017-08-12T00:54:18.170Z,1.20
2017-08-12T00:56:45.792Z,1.80
2017-08-12T00:59:14.039Z,1.03
2017-08-12T01:01:41.519Z,1.00
2017-08-12T01:04:09.758Z,0.80
2017-08-12T01:06:37.251Z,0.90
2017-08-12T01:09:05.495Z,0.93
2017-08-12T01:11:32.948Z,0.90
2017-08-12T01:14:00.434Z,0.97
2017-08-12T01:16:28.759Z,1.13
2017-08-12T01:18:56.221Z,1.00
2017-08-12T01:21:23.735Z,1.60
2017-08-12T01:23:51.969Z,1.00
2017-08-12T01:26:19.504Z,0.90
2017-08-12T01:28:46.969Z,0.90
2017-08-12T01:31:14.485Z,1.00
2017-08-12T01:33:42.716Z,1.00
2017-08-12T01:36:10.200Z,0.90
2017-08-12T01:38:37.674Z,1.27
2017-08-12T01:41:05.914Z,2.10
2017-08-12T01:43:33.482Z,1.17
2017-08-12T01:46:01.041Z,1.07
2017-08-12T01:48:28.518Z,1.00
2017-08-12T01:50:56.834Z,1.17
2017-08-12T01:53:24.294Z,1.50
2017-08-12T01:55:51.801Z,1.63
2017-08-12T01:58:20.082Z,2.20
2017-08-12T02:00:48.322Z,1.63
2017-08-12T02:03:15.786Z,1.00
2017-08-12T02:05:43.262Z,1.10
2017-08-12T02:08:10.729Z,1.03
2017-08-12T02:10:39.007Z,0.73
2017-08-12T02:13:07.320Z,1.63
2017-08-12T02:15:34.791Z,1.33
2017-08-12T02:18:02.258Z,0.87
2017-08-12T02:20:29.751Z,1.80
2017-08-12T02:22:57.990Z,0.70
2017-08-12T02:25:25.466Z,0.60
2017-08-12T02:27:52.939Z,0.90
2017-08-12T02:30:21.194Z,1.20
2017-08-12T02:32:48.775Z,1.63
2017-08-12T02:35:17.030Z,0.90
2017-08-12T02:37:44.519Z,1.00
2017-08-12T02:40:12.063Z,0.90
2017-08-12T02:42:40.318Z,1.00
2017-08-12T02:45:07.896Z,1.00
2017-08-12T02:47:36.133Z,0.80
2017-08-12T02:50:03.599Z,0.80
2017-08-12T02:52:31.085Z,2.30
2017-08-12T02:54:59.323Z,1.23
2017-08-12T02:57:26.818Z,0.90
2017-08-12T02:59:55.174Z,1.10
2017-08-12T03:02:22.634Z,0.97
2017-08-12T03:04:50.187Z,0.80
2017-08-12T03:07:17.763Z,0.70
2017-08-12T03:09:46.011Z,0.70
2017-08-12T03:12:13.471Z,0.70
2017-08-12T03:14:41.061Z,0.60
2017-08-12T03:17:09.289Z,0.60
2017-08-12T03:19:36.769Z,0.50
2017-08-12T03:22:04.258Z,1.00
2017-08-12T03:24:32.497Z,0.50
2017-08-12T03:27:00.057Z,0.70
2017-08-12T03:29:27.631Z,0.70
2017-08-12T03:31:55.138Z,2.00
2017-08-12T03:34:22.616Z,1.13
2017-08-12T03:36:50.089Z,0.50
2017-08-12T03:39:17.577Z,0.50
2017-08-12T03:41:45.075Z,3.13
2017-08-12T03:44:12.556Z,0.50
2017-08-12T03:46:40.022Z,0.60
2017-08-12T03:49:07.511Z,0.50
2017-08-12T03:51:35.033Z,0.70
2017-08-12T03:54:02.618Z,2.30
2017-08-12T03:56:30.866Z,0.50
2017-08-12T03:58:58.433Z,0.60
2017-08-12T04:01:25.910Z,0.40
2017-08-12T04:03:54.146Z,0.60
2017-08-12T04:06:21.778Z,0.60
2017-08-12T04:08:49.287Z,3.40
2017-08-12T04:11:16.841Z,0.47
2017-08-12T04:13:44.398Z,0.40
2017-08-12T04:16:11.953Z,0.80
2017-08-12T04:18:39.409Z,0.60
2017-08-12T04:21:07.040Z,0.60
2017-08-12T04:23:34.520Z,0.40
2017-08-12T04:26:02.003Z,0.40
2017-08-12T04:28:30.230Z,0.60
2017-08-12T04:30:57.710Z,0.50
2017-08-12T04:33:25.184Z,0.40
2017-08-12T04:35:52.738Z,0.40
2017-08-12T04:38:20.202Z,0.40
2017-08-12T04:40:48.440Z,1.13
2017-08-12T04:43:15.912Z,1.17
2017-08-12T04:45:43.385Z,0.40
2017-08-12T04:48:10.940Z,0.50
2017-08-12T04:50:38.428Z,1.33
2017-08-12T04:53:05.894Z,0.50
2017-08-12T04:55:33.367Z,0.40
2017-08-12T04:58:00.837Z,0.40
2017-08-12T05:00:28.297Z,0.50
2017-08-12T05:02:55.835Z,0.40
2017-08-12T05:05:23.307Z,0.40
2017-08-12T05:07:50.806Z,0.40
2017-08-12T05:10:19.055Z,0.53
2017-08-12T05:12:46.591Z,0.60
2017-08-12T05:15:14.144Z,0.40
2017-08-12T05:17:41.669Z,0.50
2017-08-12T05:20:10.021Z,0.50
2017-08-12T05:22:37.639Z,0.50
2017-08-12T05:25:05.114Z,0.40
2017-08-12T05:27:32.592Z,0.77
2017-08-12T05:30:00.075Z,0.40
2017-08-12T05:32:28.325Z,0.40
2017-08-12T05:34:55.800Z,0.50
2017-08-12T05:37:24.025Z,0.50
2017-08-12T05:39:51.509Z,0.50
2017-08-12T05:42:19.086Z,0.40
2017-08-12T05:44:47.381Z,0.43
2017-08-12T05:47:14.933Z,0.80
2017-08-12T05:49:43.197Z,0.40
2017-08-12T05:52:11.443Z,0.53
2017-08-12T05:54:38.925Z,0.60
2017-08-12T05:57:07.186Z,0.50
2017-08-12T05:59:34.667Z,0.50
2017-08-12T06:02:02.159Z,0.60
2017-08-12T06:04:29.627Z,0.67
2017-08-12T06:06:57.105Z,0.60
2017-08-12T06:09:24.582Z,0.60
2017-08-12T06:11:52.811Z,0.60
2017-08-12T06:14:20.314Z,0.50
2017-08-12T06:16:47.807Z,0.50
2017-08-12T06:19:15.278Z,0.50
2017-08-12T06:21:42.787Z,0.60
2017-08-12T06:24:11.068Z,0.50
2017-08-12T06:26:39.387Z,0.50
2017-08-12T06:29:06.899Z,0.97
2017-08-12T06:31:35.169Z,0.80
2017-08-12T06:34:02.735Z,1.00
2017-08-12T06:36:31.005Z,0.80
2017-08-12T06:38:59.287Z,1.37
2017-08-12T06:41:27.553Z,0.93
2017-08-12T06:43:55.119Z,1.00
2017-08-12T06:46:23.397Z,1.03
2017-08-12T06:48:51.647Z,1.10
2017-08-12T06:51:19.227Z,1.37
2017-08-12T06:53:46.784Z,1.17
2017-08-12T06:56:14.271Z,1.47
2017-08-12T06:58:41.802Z,1.30
2017-08-12T07:01:09.287Z,1.40
2017-08-12T07:03:36.822Z,1.83
2017-08-12T07:06:05.092Z,2.13
2017-08-12T07:08:33.467Z,1.63
2017-08-12T07:11:01.021Z,2.13
2017-08-12T07:13:28.525Z,3.80
2017-08-12T07:15:56.042Z,1.90
2017-08-12T07:18:24.308Z,2.07
2017-08-12T07:20:51.864Z,1.87
2017-08-12T07:23:19.380Z,2.07
2017-08-12T07:25:46.878Z,2.23
2017-08-12T07:28:14.359Z,1.73
2017-08-12T07:30:42.618Z,1.93
2017-08-12T07:33:10.184Z,1.80
2017-08-12T07:35:38.514Z,2.10
2017-08-12T07:38:06.022Z,2.40
2017-08-12T07:40:34.262Z,1.90
2017-08-12T07:43:01.740Z,2.07
2017-08-12T07:45:30.027Z,1.70
2017-08-12T07:47:58.345Z,1.90
2017-08-12T07:50:25.843Z,1.40
2017-08-12T07:52:53.423Z,2.03
2017-08-12T07:55:21.697Z,1.50
2017-08-12T07:57:49.981Z,1.60
2017-08-12T08:00:18.341Z,1.80
2017-08-12T08:02:45.902Z,1.20
2017-08-12T08:05:13.353Z,2.87
2017-08-12T08:07:40.919Z,2.30
2017-08-12T08:10:08.473Z,2.50
2017-08-12T08:12:35.961Z,1.70
2017-08-12T08:15:04.187Z,1.33
2017-08-12T08:17:31.760Z,1.30
2017-08-12T08:19:59.356Z,1.50
2017-08-12T08:22:26.941Z,1.50
2017-08-12T08:24:54.404Z,1.77
2017-08-12T08:27:21.909Z,3.83
2017-08-12T08:29:50.180Z,1.60
2017-08-12T08:32:18.458Z,1.77
2017-08-12T08:34:46.728Z,2.30
2017-08-12T08:37:14.290Z,1.93
2017-08-12T08:39:42.556Z,1.80
2017-08-12T08:42:10.070Z,3.97
2017-08-12T08:44:37.629Z,3.07
2017-08-12T08:47:05.129Z,2.23
2017-08-12T08:49:32.634Z,2.23
2017-08-12T08:52:00.112Z,3.03
2017-08-12T08:54:27.595Z,2.57
2017-08-12T08:56:55.061Z,2.80
2017-08-12T08:59:22.571Z,3.10
2017-08-12T09:01:50.043Z,3.40
2017-08-12T09:04:17.526Z,3.10
2017-08-12T09:06:45.096Z,2.90
2017-08-12T09:09:13.344Z,3.43
2017-08-12T09:11:40.819Z,2.50
2017-08-12T09:14:08.381Z,2.93
2017-08-12T09:16:35.948Z,3.17
2017-08-12T09:19:03.507Z,3.30
2017-08-12T09:21:31.800Z,3.30
2017-08-12T09:24:00.043Z,3.27
2017-08-12T09:26:29.000Z,5.13
2017-08-12T09:28:56.594Z,4.00
2017-08-12T09:31:24.050Z,5.07
2017-08-12T09:33:51.627Z,3.90
2017-08-12T09:36:20.341Z,6.40
2017-08-12T09:38:48.664Z,5.00
2017-08-12T09:41:16.135Z,4.47
2017-08-12T09:43:43.630Z,3.43
2017-08-12T09:46:11.100Z,3.70
2017-08-12T09:48:38.619Z,4.27
2017-08-12T09:51:06.871Z,4.70
2017-08-12T09:53:34.447Z,4.43
2017-08-12T09:56:02.698Z,4.27
2017-08-12T09:58:30.169Z,4.10
2017-08-12T10:00:57.730Z,4.20
2017-08-12T10:03:25.348Z,4.27
2017-08-12T10:05:52.854Z,4.37
2017-08-12T10:08:21.182Z,5.10
2017-08-12T10:10:48.686Z,4.87
2017-08-12T10:13:16.237Z,6.60
2017-08-12T10:15:43.741Z,5.07
2017-08-12T10:18:11.203Z,5.40
2017-08-12T10:20:38.723Z,4.77
2017-08-12T10:23:06.177Z,5.37
2017-08-12T10:25:34.417Z,4.67
2017-08-12T10:28:01.907Z,5.23
2017-08-12T10:30:29.487Z,5.07
2017-08-12T10:32:57.031Z,4.70
2017-08-12T10:35:25.351Z,4.23
2017-08-12T10:37:52.821Z,4.90
2017-08-12T10:40:20.306Z,3.90
2017-08-12T10:42:47.871Z,4.20
2017-08-12T10:45:15.347Z,4.47
2017-08-12T10:47:43.597Z,6.40
2017-08-12T10:50:11.157Z,4.87
2017-08-12T10:52:38.744Z,4.03
2017-08-12T10:55:06.279Z,10.93
2017-08-12T10:57:33.778Z,5.80
2017-08-12T11:00:01.291Z,9.07
2017-08-12T11:02:28.850Z,4.50
2017-08-12T11:04:56.406Z,6.30
2017-08-12T11:07:23.877Z,5.90
2017-08-12T11:09:52.138Z,4.57
2017-08-12T11:12:19.704Z,4.70
2017-08-12T11:14:47.260Z,5.27
2017-08-12T11:17:14.818Z,6.23
2017-08-12T11:19:42.427Z,6.23
2017-08-12T11:22:09.942Z,4.33
2017-08-12T11:24:37.504Z,4.43
2017-08-12T11:27:05.770Z,4.00
2017-08-12T11:29:33.241Z,4.53
2017-08-12T11:32:01.505Z,5.53
2017-08-12T11:34:28.965Z,4.23
2017-08-12T11:36:57.243Z,4.27
2017-08-12T11:39:25.512Z,4.47
2017-08-12T11:41:53.079Z,4.23
2017-08-12T11:44:21.354Z,5.13
2017-08-12T11:46:49.626Z,4.60
2017-08-12T11:49:17.868Z,3.80
2017-08-12T11:51:45.370Z,4.83
2017-08-12T11:54:13.635Z,4.13
2017-08-12T11:56:41.917Z,5.13
2017-08-12T11:59:10.186Z,4.20
2017-08-12T12:01:38.462Z,5.10
2017-08-12T12:04:06.823Z,6.40
2017-08-12T12:06:34.283Z,5.90
2017-08-12T12:09:01.903Z,4.03
2017-08-12T12:11:29.515Z,3.97
2017-08-12T12:13:57.782Z,4.77
2017-08-12T12:16:25.356Z,3.77
2017-08-12T12:18:53.635Z,6.03
2017-08-12T12:21:21.898Z,3.83
2017-08-12T12:23:49.379Z,3.83
2017-08-12T12:26:17.615Z,8.20
2017-08-12T12:28:45.083Z,2.97
2017-08-12T12:31:12.543Z,5.37
2017-08-12T12:33:40.054Z,4.37
2017-08-12T12:36:07.545Z,3.83
2017-08-12T12:38:35.014Z,4.00
2017-08-12T12:41:02.456Z,4.90
2017-08-12T12:43:29.917Z,5.50
2017-08-12T12:45:57.481Z,4.73
2017-08-12T12:48:25.049Z,4.93
2017-08-12T12:50:52.657Z,3.50
2017-08-12T12:53:20.162Z,3.40
2017-08-12T12:55:48.444Z,4.33
2017-08-12T12:58:16.670Z,4.00
2017-08-12T13:00:44.171Z,5.10
2017-08-12T13:03:11.717Z,4.30
2017-08-12T13:05:39.182Z,5.53
2017-08-12T13:08:06.755Z,3.70
2017-08-12T13:10:35.027Z,3.57
2017-08-12T13:13:03.266Z,4.13
2017-08-12T13:15:30.758Z,5.20
2017-08-12T13:17:59.043Z,3.60
2017-08-12T13:20:27.306Z,3.43
2017-08-12T13:22:54.870Z,4.37
2017-08-12T13:25:23.135Z,3.90
2017-08-12T13:27:51.443Z,5.47
2017-08-12T13:30:18.906Z,4.50
2017-08-12T13:32:46.432Z,4.13
2017-08-12T13:35:13.994Z,7.17
2017-08-12T13:37:42.267Z,3.37
2017-08-12T13:40:09.821Z,4.30
2017-08-12T13:42:37.277Z,8.10
2017-08-12T13:45:04.759Z,5.90
2017-08-12T13:47:32.218Z,6.20
2017-08-12T13:49:59.703Z,5.63
2017-08-12T13:52:27.261Z,10.43
2017-08-12T13:54:54.733Z,9.40
2017-08-12T13:57:22.207Z,8.53
2017-08-12T13:59:49.770Z,5.47
2017-08-12T14:02:17.251Z,6.30
2017-08-12T14:04:45.493Z,5.10
2017-08-12T14:07:12.961Z,4.40
2017-08-12T14:09:40.424Z,5.40
2017-08-12T14:12:07.982Z,4.50
2017-08-12T14:14:35.555Z,9.77
2017-08-12T14:17:03.793Z,8.23
2017-08-12T14:19:31.258Z,6.27
2017-08-12T14:21:58.841Z,5.37
2017-08-12T14:24:27.079Z,4.17
2017-08-12T14:26:54.574Z,4.37
2017-08-12T14:29:22.844Z,3.93
2017-08-12T14:31:50.311Z,4.20
2017-08-12T14:34:18.587Z,3.73
2017-08-12T14:36:46.858Z,5.03
2017-08-12T14:39:15.135Z,5.60
2017-08-12T14:41:43.411Z,3.50
2017-08-12T14:44:11.687Z,4.93
2017-08-12T14:46:39.957Z,3.70
2017-08-12T14:49:08.184Z,4.77
2017-08-12T14:51:35.679Z,5.70
2017-08-12T14:54:03.137Z,3.70
2017-08-12T14:56:30.627Z,3.50
2017-08-12T14:58:58.152Z,4.20
2017-08-12T15:01:25.617Z,5.90
2017-08-12T15:03:53.881Z,3.73
2017-08-12T15:06:21.355Z,4.60
2017-08-12T15:08:49.618Z,5.00
2017-08-12T15:11:17.089Z,3.57
2017-08-12T15:13:45.351Z,4.73
2017-08-12T15:16:12.910Z,6.53
2017-08-12T15:18:40.468Z,4.40
2017-08-12T15:21:07.937Z,6.60
2017-08-12T15:23:36.212Z,6.00
2017-08-12T15:26:04.445Z,5.70
2017-08-12T15:28:31.916Z,5.43
2017-08-12T15:30:59.385Z,6.73
2017-08-12T15:33:26.866Z,5.37
2017-08-12T15:35:55.099Z,5.07
2017-08-12T15:38:22.578Z,5.77
2017-08-12T15:40:50.038Z,5.13
2017-08-12T15:43:18.318Z,5.57
2017-08-12T15:45:46.738Z,6.97
2017-08-12T15:48:14.243Z,5.07
2017-08-12T15:50:41.711Z,8.73
2017-08-12T15:53:09.955Z,5.97
2017-08-12T15:55:37.445Z,5.80
2017-08-12T15:58:05.719Z,4.60
2017-08-12T16:00:33.270Z,4.93
2017-08-12T16:03:00.729Z,5.23
2017-08-12T16:05:28.961Z,5.13
2017-08-12T16:07:56.466Z,4.60
2017-08-12T16:10:24.750Z,9.73
2017-08-12T16:12:52.992Z,5.93
2017-08-12T16:15:20.578Z,4.37
2017-08-12T16:17:48.114Z,6.23
2017-08-12T16:20:15.612Z,4.50
2017-08-12T16:22:43.091Z,5.27
2017-08-12T16:25:10.619Z,4.27
2017-08-12T16:27:38.141Z,4.40
2017-08-12T16:30:05.604Z,6.70
2017-08-12T16:32:33.098Z,3.97
2017-08-12T16:35:00.646Z,3.70
2017-08-12T16:37:28.185Z,3.80
2017-08-12T16:39:55.674Z,7.20
2017-08-12T16:42:23.216Z,10.60
2017-08-12T16:44:51.459Z,4.20
2017-08-12T16:47:19.061Z,3.00
2017-08-12T16:49:47.286Z,4.33
2017-08-12T16:52:14.774Z,4.10
2017-08-12T16:54:43.129Z,4.13
2017-08-12T16:57:10.707Z,3.63
2017-08-12T16:59:38.188Z,3.37
2017-08-12T17:02:05.739Z,3.70
2017-08-12T17:04:33.994Z,3.53
2017-08-12T17:07:01.506Z,4.17
2017-08-12T17:09:29.072Z,2.80
2017-08-12T17:11:56.693Z,4.10
2017-08-12T17:14:24.201Z,3.50
2017-08-12T17:16:51.679Z,5.20
2017-08-12T17:19:19.201Z,4.00
2017-08-12T17:21:46.920Z,4.20
2017-08-12T17:24:15.153Z,5.63
2017-08-12T17:26:42.618Z,5.47
2017-08-12T17:29:10.163Z,6.53
2017-08-12T17:31:37.647Z,5.07
2017-08-12T17:34:05.134Z,4.37
2017-08-12T17:36:32.690Z,10.37
2017-08-12T17:39:00.229Z,4.13
2017-08-12T17:41:27.783Z,4.53
2017-08-12T17:43:55.264Z,8.37
2017-08-12T17:46:22.815Z,4.13
2017-08-12T17:48:51.091Z,8.20
2017-08-12T17:51:18.569Z,4.00
2017-08-12T17:53:46.090Z,4.70
2017-08-12T17:56:13.651Z,5.30
2017-08-12T17:58:41.121Z,4.93
2017-08-12T18:01:09.367Z,6.20
2017-08-12T18:03:36.935Z,4.47
2017-08-12T18:06:04.416Z,4.37
2017-08-12T18:08:31.878Z,5.37
2017-08-12T18:10:59.373Z,3.87
2017-08-12T18:13:26.832Z,4.47
2017-08-12T18:15:54.307Z,5.00
2017-08-12T18:18:21.773Z,8.20
2017-08-12T18:20:49.334Z,6.60
2017-08-12T18:23:16.819Z,7.00
2017-08-12T18:25:45.057Z,7.50
2017-08-12T18:28:12.636Z,5.23
2017-08-12T18:30:40.175Z,4.67
2017-08-12T18:33:07.748Z,7.60
2017-08-12T18:35:36.096Z,5.03
2017-08-12T18:38:03.762Z,5.70
2017-08-12T18:40:31.236Z,4.73
2017-08-12T18:42:58.761Z,5.73
2017-08-12T18:45:26.249Z,4.87
2017-08-12T18:47:53.740Z,5.77
2017-08-12T18:50:21.246Z,5.13
2017-08-12T18:52:48.719Z,5.23
2017-08-12T18:55:16.221Z,5.77
2017-08-12T18:57:43.712Z,5.00
2017-08-12T19:00:11.189Z,4.90
2017-08-12T19:02:39.446Z,5.13
2017-08-12T19:05:06.938Z,4.40
2017-08-12T19:07:34.497Z,4.10
2017-08-12T19:10:01.983Z,3.13
2017-08-12T19:12:29.473Z,3.70
2017-08-12T19:14:57.015Z,4.47
2017-08-12T19:17:24.526Z,3.60
2017-08-12T19:19:52.840Z,2.77
2017-08-12T19:22:20.323Z,2.73
2017-08-12T19:24:47.818Z,3.50
2017-08-12T19:27:15.302Z,3.77
2017-08-12T19:29:42.893Z,2.23
2017-08-12T19:32:10.374Z,2.60
2017-08-12T19:34:37.886Z,2.43
2017-08-12T19:37:05.391Z,3.10
2017-08-12T19:39:32.888Z,2.70
2017-08-12T19:42:00.371Z,4.07
2017-08-12T19:44:27.846Z,2.77
2017-08-12T19:46:55.324Z,2.87
2017-08-12T19:49:23.003Z,3.20
2017-08-12T19:51:51.414Z,4.03
2017-08-12T19:54:18.932Z,3.27
2017-08-12T19:56:47.159Z,3.43
2017-08-12T19:59:14.654Z,2.90
2017-08-12T20:01:42.320Z,2.67
2017-08-12T20:04:09.864Z,2.90
2017-08-12T20:06:37.446Z,3.50
2017-08-12T20:09:05.719Z,4.80
2017-08-12T20:11:33.971Z,4.20
2017-08-12T20:14:01.690Z,4.23
2017-08-12T20:16:29.245Z,3.93
2017-08-12T20:18:56.760Z,4.33
2017-08-12T20:21:24.486Z,5.20
2017-08-12T20:23:51.995Z,3.33
2017-08-12T20:26:20.414Z,3.97
2017-08-12T20:28:47.979Z,2.83
2017-08-12T20:31:15.511Z,3.97
2017-08-12T20:33:43.146Z,4.00
2017-08-12T20:36:10.635Z,4.00
2017-08-12T20:38:38.112Z,3.13
2017-08-12T20:41:05.616Z,5.07
2017-08-12T20:43:33.173Z,3.17
2017-08-12T20:46:00.868Z,4.10
2017-08-12T20:48:28.389Z,3.83
2017-08-12T20:50:55.987Z,3.27
2017-08-12T20:53:23.516Z,4.03
2017-08-12T20:55:51.056Z,3.87
2017-08-12T20:58:18.709Z,4.13
2017-08-12T21:00:46.240Z,3.87
2017-08-12T21:03:13.711Z,3.87
2017-08-12T21:05:41.227Z,3.77
2017-08-12T21:08:08.740Z,4.23
2017-08-12T21:10:36.226Z,5.97
2017-08-12T21:13:03.710Z,4.13
2017-08-12T21:15:31.242Z,6.13
2017-08-12T21:17:59.470Z,4.80
2017-08-12T21:20:26.969Z,4.10
2017-08-12T21:22:54.430Z,8.83
2017-08-12T21:25:22.697Z,3.73
2017-08-12T21:27:50.270Z,5.20
2017-08-12T21:30:18.584Z,4.43
2017-08-12T21:32:46.066Z,3.87
2017-08-12T21:35:13.547Z,7.03
2017-08-12T21:37:41.025Z,3.97
2017-08-12T21:40:09.279Z,5.00
2017-08-12T21:42:36.864Z,3.63
2017-08-12T21:45:04.431Z,3.50
2017-08-12T21:47:31.916Z,7.10
2017-08-12T21:49:59.431Z,4.10
2017-08-12T21:52:27.705Z,4.77
2017-08-12T21:54:56.016Z,4.40
2017-08-12T21:57:23.497Z,4.33
2017-08-12T21:59:50.985Z,3.40
2017-08-12T22:02:19.259Z,3.83
2017-08-12T22:04:47.580Z,3.73
2017-08-12T22:07:15.048Z,3.43
2017-08-12T22:09:42.565Z,4.07
2017-08-12T22:12:10.819Z,3.47
2017-08-12T22:14:38.296Z,3.60
2017-08-12T22:17:06.569Z,3.57
2017-08-12T22:19:34.814Z,4.30
2017-08-12T22:22:02.295Z,3.60
2017-08-12T22:24:30.543Z,3.50
2017-08-12T22:26:58.005Z,3.73
2017-08-12T22:29:25.489Z,3.70
2017-08-12T22:31:53.760Z,12.83
2017-08-12T22:34:22.042Z,3.13
2017-08-12T22:36:50.310Z,3.63
2017-08-12T22:39:18.548Z,3.60
2017-08-12T22:41:46.017Z,4.03
2017-08-12T22:44:13.494Z,3.80
2017-08-12T22:46:41.768Z,3.90
2017-08-12T22:49:09.326Z,3.63
2017-08-12T22:51:36.895Z,3.77
2017-08-12T22:54:05.161Z,4.67
2017-08-12T22:56:32.628Z,3.37
2017-08-12T22:59:00.869Z,3.67
2017-08-12T23:01:28.397Z,2.80
2017-08-12T23:03:55.866Z,4.30
2017-08-12T23:06:23.369Z,3.73
2017-08-12T23:08:50.909Z,4.07
2017-08-12T23:11:18.391Z,3.00
2017-08-12T23:13:46.651Z,3.30
2017-08-12T23:16:14.210Z,2.80
2017-08-12T23:18:41.707Z,3.00
2017-08-12T23:21:09.209Z,3.50
2017-08-12T23:23:36.681Z,3.37
2017-08-12T23:26:04.149Z,2.87
2017-08-12T23:28:32.414Z,3.37
2017-08-12T23:30:59.893Z,3.83
2017-08-12T23:33:27.351Z,3.17
2017-08-12T23:35:54.887Z,3.07
2017-08-12T23:38:23.157Z,3.97
2017-08-12T23:40:50.710Z,3.07
2017-08-12T23:43:18.279Z,3.63
2017-08-12T23:45:45.761Z,3.17
2017-08-12T23:48:13.299Z,3.07
2017-08-12T23:50:41.571Z,3.47
2017-08-12T23:53:09.121Z,3.23
2017-08-12T23:55:36.690Z,3.70
2017-08-12T23:58:04.928Z,3.47
